Volcan De Tamasite — ECFE — position and weather

sailwx.info

Track history (hours):
 
Tides and Currents Weather Stations Pressure Air Temp Water Temp Dewpoint Dewpoint Depression Visibility Wind Speed Wind Dir Waves Ship Positions

Volcan De Tamasite

Last reported at 2017-Dec-16 13:00 UTC. Time now 2017-Dec-16 13:14 UTC.
Position N 28°03' W 014°41'.

Length 141 m; draft 5.5 m.

Type: Passenger vessel. MMSI: 224093000.

Date/timePositionNaut miles runAvg speedWind from/ knotsBaromVisibWave heightAir tempDewpointWater temp
2017-Dec-16 13:00N 28°03' W 014°41'1021.0
2017-Dec-16 12:30N 28°04' W 014°53'1120.9
2017-Dec-16 12:00N 28°06' W 015°05'1021.0
2017-Dec-16 11:30N 28°08' W 015°16'714.4
2017-Dec-16 11:00N 28°10' W 015°24'0 0.0
2017-Dec-16 10:30N 28°10' W 015°24'3 5.1
2017-Dec-16 10:00N 28°12' W 015°25'1121.1
2017-Dec-16 09:30N 28°16' W 015°36'1020.8
2017-Dec-16 09:00N 28°20' W 015°47'1020.6
2017-Dec-16 08:30N 28°23' W 015°58'1020.6
2017-Dec-16 08:00N 28°27' W 016°09'510.2
2017-Dec-16 07:30N 28°28' W 016°15'0 0.0
2017-Dec-16 07:00N 28°28' W 016°15'0 0.0
2017-Dec-16 06:30N 28°28' W 016°15'0 0.0
2017-Dec-16 06:00N 28°28' W 016°15'0 0.0
2017-Dec-16 05:30N 28°28' W 016°15'0 0.0
2017-Dec-16 05:00N 28°28' W 016°15'0 0.0
2017-Dec-16 04:30N 28°28' W 016°15'0 0.0
2017-Dec-16 04:00N 28°28' W 016°15'0 0.0
2017-Dec-16 03:30N 28°28' W 016°15'0 0.0
2017-Dec-16 03:00N 28°28' W 016°15'0 0.0
2017-Dec-16 02:30N 28°28' W 016°15'0 0.0
2017-Dec-16 02:00N 28°28' W 016°15'0 0.0
2017-Dec-16 01:30N 28°28' W 016°15'0 0.0
2017-Dec-16 01:00N 28°28' W 016°15'0 0.0
2017-Dec-16 00:30N 28°28' W 016°15'0 0.0
2017-Dec-16 00:00N 28°28' W 016°15'0 0.0
2017-Dec-15 23:30N 28°28' W 016°15'1 2.0
2017-Dec-15 23:00N 28°29' W 016°14'816.4
2017-Dec-15 22:31N 28°25' W 016°05'1320.0
2017-Dec-15 21:51N 28°20' W 015°52'720.0
2017-Dec-15 21:30N 28°19' W 015°44'1020.0
2017-Dec-15 21:00N 28°15' W 015°33'1019.9
2017-Dec-15 20:30N 28°11' W 015°23'2 3.4
2017-Dec-15 20:00N 28°10' W 015°24'0 0.0
2017-Dec-15 19:30N 28°10' W 015°24'0 0.1
2017-Dec-15 19:00N 28°10' W 015°24'713.4
2017-Dec-15 18:31N 28°08' W 015°17'1020.7
2017-Dec-15 18:00N 28°06' W 015°05'1020.4
2017-Dec-15 17:31N 28°05' W 014°54'1020.5
2017-Dec-15 17:01N 28°03' W 014°42'1020.6
2017-Dec-15 16:31N 28°02' W 014°31'8 4.7
2017-Dec-15 14:51N 28°03' W 014°22'0 0.0
2017-Dec-15 14:27N 28°03' W 014°22'1310.9
2017-Dec-15 13:17N 28°02' W 014°36'620.4
2017-Dec-15 13:00N 28°03' W 014°42'1020.4
2017-Dec-15 12:30N 28°05' W 014°54'1020.5
2017-Dec-15 12:00N 28°07' W 015°05'1020.6
2017-Dec-15 11:30N 28°09' W 015°17'713.0
2017-Dec-15 11:00N 28°10' W 015°24'0 0.0
2017-Dec-15 10:30N 28°10' W 015°24'2 4.1
2017-Dec-15 10:00N 28°12' W 015°24'1020.5
2017-Dec-15 09:30N 28°16' W 015°35'1020.2
2017-Dec-15 09:00N 28°18' W 015°45'1020.1
2017-Dec-15 08:30N 28°22' W 015°56'1020.4
2017-Dec-15 08:00N 28°26' W 016°07'714.8
2017-Dec-15 07:31N 28°28' W 016°15'0 0.0
2017-Dec-15 07:01N 28°28' W 016°15'0 0.0
2017-Dec-15 06:31N 28°28' W 016°15'0 0.0
2017-Dec-15 06:00N 28°28' W 016°15'0 0.0
2017-Dec-15 05:30N 28°28' W 016°15'0 0.0
2017-Dec-15 05:00N 28°28' W 016°15'0 0.0
2017-Dec-15 04:30N 28°28' W 016°15'0 0.0
2017-Dec-15 04:00N 28°28' W 016°15'0 0.0
2017-Dec-15 02:31N 28°28' W 016°15'0 0.0
2017-Dec-15 01:00N 28°28' W 016°15'0 0.2
2017-Dec-15 00:31N 28°28' W 016°15'29 4.8
2017-Dec-14 18:30N 28°19' W 015°44'1019.7
2017-Dec-14 18:00N 28°22' W 015°55'1019.8
2017-Dec-14 17:30N 28°26' W 016°05'917.3
2017-Dec-14 17:00N 28°29' W 016°14'0 0.8
2017-Dec-14 16:30N 28°28' W 016°15'0 0.0
2017-Dec-14 16:00N 28°28' W 016°15'0 0.0
2017-Dec-14 15:00N 28°28' W 016°15'3 5.5
2017-Dec-14 14:30N 28°28' W 016°12'1020.6
2017-Dec-14 14:00N 28°25' W 016°01'1020.5
2017-Dec-14 13:30N 28°21' W 015°49'1020.4
2017-Dec-14 13:00N 28°17' W 015°39'1020.0
2017-Dec-14 12:30N 28°13' W 015°28'611.1
2017-Dec-14 12:00N 28°09' W 015°24'0 0.5
2017-Dec-14 11:30N 28°10' W 015°24'0 0.0
2017-Dec-14 11:00N 28°10' W 015°24'0 0.0
2017-Dec-14 10:30N 28°10' W 015°24'3 6.2
2017-Dec-14 10:01N 28°13' W 015°25'1020.3
2017-Dec-14 09:30N 28°16' W 015°36'1019.8
2017-Dec-14 09:00N 28°19' W 015°46'1019.8
2017-Dec-14 08:30N 28°23' W 015°57'1019.7
2017-Dec-14 08:01N 28°27' W 016°07'713.5
2017-Dec-14 07:30N 28°28' W 016°15'0 0.0
2017-Dec-14 07:00N 28°28' W 016°15'0 0.0
2017-Dec-14 06:30N 28°28' W 016°15'0 0.0
2017-Dec-14 06:00N 28°28' W 016°15'0 0.0
2017-Dec-14 05:30N 28°28' W 016°15'0 0.0
2017-Dec-14 05:00N 28°28' W 016°15'0 0.0
2017-Dec-14 04:30N 28°28' W 016°15'0 0.0
2017-Dec-14 04:00N 28°28' W 016°15'0 0.0
2017-Dec-14 03:30N 28°28' W 016°15'0 0.0
2017-Dec-14 03:00N 28°28' W 016°15'0 0.0
2017-Dec-14 02:30N 28°28' W 016°15'0 0.0
2017-Dec-14 02:00N 28°28' W 016°15'0 0.0
2017-Dec-14 01:30N 28°28' W 016°15'0 0.0
2017-Dec-14 01:00N 28°28' W 016°15'0 0.0
2017-Dec-14 00:30N 28°28' W 016°15'0 0.0
2017-Dec-14 00:00N 28°28' W 016°15'1 2.5
2017-Dec-13 23:30N 28°29' W 016°13'816.3
2017-Dec-13 23:00N 28°26' W 016°05'1019.7
2017-Dec-13 22:29N 28°22' W 015°54'919.6
2017-Dec-13 22:00N 28°19' W 015°44'1019.3
2017-Dec-13 21:30N 28°15' W 015°34'1019.4
2017-Dec-13 21:00N 28°12' W 015°23'3 5.5
2017-Dec-13 20:30N 28°10' W 015°24'0 0.0
2017-Dec-13 20:00N 28°10' W 015°24'0 0.0
2017-Dec-13 19:30N 28°10' W 015°24'1 1.1
2017-Dec-13 19:00N 28°09' W 015°24'714.8
2017-Dec-13 18:30N 28°08' W 015°16'1019.9
2017-Dec-13 18:00N 28°07' W 015°04'1019.8
2017-Dec-13 17:30N 28°06' W 014°53'1019.8
2017-Dec-13 17:00N 28°04' W 014°42'1020.2
2017-Dec-13 16:30N 28°02' W 014°31'1 0.2
2017-Dec-13 10:56N 28°02' W 014°32'818.8
2017-Dec-13 10:30N 28°04' W 014°41'918.7
2017-Dec-13 10:00N 28°06' W 014°52'919.0
2017-Dec-13 09:30N 28°09' W 015°02'918.4
2017-Dec-13 09:00N 28°11' W 015°12'816.9
2017-Dec-13 08:30N 28°10' W 015°21'2 4.7
2017-Dec-13 08:00N 28°10' W 015°24'0 0.0
2017-Dec-13 07:30N 28°10' W 015°24'0 0.0
2017-Dec-13 07:00N 28°10' W 015°24'0 0.0
2017-Dec-13 06:30N 28°10' W 015°24'0 0.0
2017-Dec-13 06:00N 28°10' W 015°24'0 0.0
2017-Dec-13 05:30N 28°10' W 015°24'0 0.0
2017-Dec-13 05:00N 28°10' W 015°24'0 0.0
2017-Dec-13 04:30N 28°10' W 015°24'0 0.0
2017-Dec-13 04:00N 28°10' W 015°24'0 0.0
2017-Dec-13 03:30N 28°10' W 015°24'0 0.0
2017-Dec-13 03:00N 28°10' W 015°24'0 0.0
2017-Dec-13 02:30N 28°10' W 015°24'0 0.0
2017-Dec-13 02:00N 28°10' W 015°24'0 0.0
2017-Dec-13 01:30N 28°10' W 015°24'0 0.0
2017-Dec-13 01:00N 28°10' W 015°24'0 0.0
2017-Dec-13 00:30N 28°10' W 015°24'0 0.0
2017-Dec-13 00:00N 28°10' W 015°24'0 0.0
2017-Dec-12 23:30N 28°10' W 015°24'0 0.0
2017-Dec-12 23:00N 28°10' W 015°24'0 0.0
2017-Dec-12 22:30N 28°10' W 015°24'0 0.0
2017-Dec-12 22:00N 28°10' W 015°24'0 0.0
2017-Dec-12 21:30N 28°10' W 015°24'0 0.0
2017-Dec-12 21:00N 28°10' W 015°24'0 0.0
2017-Dec-12 20:30N 28°10' W 015°24'0 0.0
2017-Dec-12 20:00N 28°10' W 015°24'0 0.0
2017-Dec-12 19:30N 28°10' W 015°24'1 1.2
2017-Dec-12 19:01N 28°09' W 015°24'918.6
2017-Dec-12 18:30N 28°11' W 015°14'1019.6
2017-Dec-12 18:00N 28°10' W 015°02'918.7
2017-Dec-12 17:30N 28°07' W 014°52'918.6
2017-Dec-12 17:00N 28°04' W 014°42'1019.5
2017-Dec-12 16:30N 28°02' W 014°32'9 8.9
2017-Dec-12 15:31N 28°03' W 014°22'0 0.0
2017-Dec-12 15:30N 28°03' W 014°22'0 0.0
2017-Dec-12 14:43N 28°03' W 014°22'0 0.0
2017-Dec-12 14:28N 28°03' W 014°22'9 2.2
2017-Dec-12 10:30N 28°02' W 014°32'47 4.1
2017-Dec-11 23:06N 28°10' W 015°24'0 0.0
2017-Dec-11 23:00N 28°10' W 015°24'0 0.0
2017-Dec-11 22:30N 28°10' W 015°24'0 0.0
2017-Dec-11 22:00N 28°10' W 015°24'0 0.0
2017-Dec-11 21:30N 28°10' W 015°24'0 0.0
2017-Dec-11 21:00N 28°10' W 015°24'0 0.0
2017-Dec-11 20:30N 28°10' W 015°24'0 0.0
2017-Dec-11 20:00N 28°10' W 015°24'0 0.0
2017-Dec-11 19:30N 28°10' W 015°24'1 2.1
2017-Dec-11 19:00N 28°09' W 015°23'612.4
2017-Dec-11 18:30N 28°08' W 015°16'918.8
2017-Dec-11 18:00N 28°06' W 015°06'1020.0
2017-Dec-11 17:30N 28°05' W 014°54'1020.1
2017-Dec-11 17:00N 28°04' W 014°43'1020.3
2017-Dec-11 16:30N 28°02' W 014°32'1 0.2
2017-Dec-11 10:25N 28°02' W 014°31'921.1
2017-Dec-11 10:00N 28°03' W 014°40'1121.0
2017-Dec-11 09:30N 28°05' W 014°52'1021.0
2017-Dec-11 09:00N 28°06' W 015°04'1121.1
2017-Dec-11 08:30N 28°08' W 015°16'815.1
2017-Dec-11 08:00N 28°10' W 015°24'0 0.1
2017-Dec-11 07:30N 28°10' W 015°24'0 0.0
2017-Dec-11 07:00N 28°10' W 015°24'0 0.0
2017-Dec-11 06:30N 28°10' W 015°24'0 0.0
2017-Dec-11 06:00N 28°10' W 015°24'0 0.0
2017-Dec-11 05:30N 28°10' W 015°24'0 0.0
2017-Dec-11 05:00N 28°10' W 015°24'0 0.0
2017-Dec-11 04:30N 28°10' W 015°24'0 0.0
2017-Dec-11 04:00N 28°10' W 015°24'0 0.0
2017-Dec-11 03:30N 28°10' W 015°24'0 0.0
2017-Dec-11 03:00N 28°10' W 015°24'0 0.0
2017-Dec-11 02:30N 28°10' W 015°24'0 0.0
2017-Dec-11 02:00N 28°10' W 015°24'0 0.0
2017-Dec-11 01:30N 28°10' W 015°24'0 0.0
2017-Dec-11 01:00N 28°10' W 015°24'0 0.0
2017-Dec-11 00:30N 28°10' W 015°24'0 0.0
2017-Dec-11 00:00N 28°10' W 015°24'0 0.0
2017-Dec-10 23:30N 28°10' W 015°24'0 0.0
2017-Dec-10 23:00N 28°10' W 015°24'0 0.0
2017-Dec-10 22:30N 28°10' W 015°24'0 0.0
2017-Dec-10 22:00N 28°10' W 015°24'0 0.4
2017-Dec-10 21:30N 28°09' W 015°24'816.2
2017-Dec-10 21:00N 28°08' W 015°15'1020.0
2017-Dec-10 20:30N 28°06' W 015°04'1020.1
2017-Dec-10 20:00N 28°05' W 014°53'1019.9
2017-Dec-10 19:30N 28°03' W 014°41'1020.6
2017-Dec-10 19:00N 28°02' W 014°30'0 0.2
2017-Dec-10 16:26N 28°02' W 014°30'819.7
2017-Dec-10 16:00N 28°03' W 014°40'1020.4
2017-Dec-10 15:30N 28°05' W 014°51'1020.4
2017-Dec-10 15:00N 28°06' W 015°03'1020.4
2017-Dec-10 14:30N 28°07' W 015°14'918.0
2017-Dec-10 14:00N 28°09' W 015°24'0 0.6
2017-Dec-10 13:30N 28°10' W 015°24'0 0.0
2017-Dec-10 13:00N 28°10' W 015°24'0 0.0
2017-Dec-10 12:30N 28°10' W 015°24'0 0.0
2017-Dec-10 12:00N 28°10' W 015°24'0 0.0
2017-Dec-10 11:30N 28°10' W 015°24'0 0.0
2017-Dec-10 11:00N 28°10' W 015°24'2 3.2
2017-Dec-10 10:30N 28°11' W 015°23'1020.0
2017-Dec-10 10:00N 28°15' W 015°34'1020.4
2017-Dec-10 09:30N 28°18' W 015°45'1019.9
2017-Dec-10 09:00N 28°22' W 015°55'1020.3
2017-Dec-10 08:30N 28°26' W 016°06'816.2
2017-Dec-10 08:01N 28°28' W 016°15'0 0.4
2017-Dec-10 07:30N 28°28' W 016°15'0 0.0
2017-Dec-10 07:00N 28°28' W 016°15'0 0.0
2017-Dec-10 06:30N 28°28' W 016°15'0 0.0
2017-Dec-10 06:00N 28°28' W 016°15'0 0.0
2017-Dec-10 05:30N 28°28' W 016°15'0 0.0
2017-Dec-10 05:00N 28°28' W 016°15'0 0.0
2017-Dec-10 04:30N 28°28' W 016°15'0 0.0
2017-Dec-10 04:00N 28°28' W 016°15'0 0.0
2017-Dec-10 03:30N 28°28' W 016°15'0 0.0
2017-Dec-10 03:00N 28°28' W 016°15'0 0.0
2017-Dec-10 02:30N 28°28' W 016°15'0 0.0
2017-Dec-10 02:00N 28°28' W 016°15'0 0.0
2017-Dec-10 01:30N 28°28' W 016°15'0 0.0
2017-Dec-10 01:00N 28°28' W 016°15'0 0.0
2017-Dec-10 00:30N 28°28' W 016°15'0 0.0
2017-Dec-10 00:00N 28°28' W 016°15'0 0.0
2017-Dec-09 23:30N 28°28' W 016°15'0 0.0
2017-Dec-09 23:00N 28°28' W 016°15'1 2.4
2017-Dec-09 22:30N 28°29' W 016°13'1020.3
2017-Dec-09 22:00N 28°25' W 016°03'1120.9
2017-Dec-09 21:29N 28°21' W 015°51'1020.8
2017-Dec-09 21:00N 28°18' W 015°40'1020.5
2017-Dec-09 20:30N 28°14' W 015°30'713.2
2017-Dec-09 20:00N 28°09' W 015°24'0 0.4
2017-Dec-09 19:30N 28°10' W 015°24'0 0.0
2017-Dec-09 19:00N 28°10' W 015°24'510.9
2017-Dec-09 18:31N 28°08' W 015°18'1020.2
2017-Dec-09 18:01N 28°07' W 015°07'1020.3
2017-Dec-09 17:31N 28°05' W 014°55'1020.4
2017-Dec-09 17:00N 28°04' W 014°44'1120.9
2017-Dec-09 16:30N 28°02' W 014°32'914.3
2017-Dec-09 15:52N 28°03' W 014°22'0 0.1
2017-Dec-09 13:47N 28°03' W 014°22'816.9
2017-Dec-09 13:20N 28°02' W 014°31'619.9
2017-Dec-09 13:00N 28°03' W 014°38'1020.0
2017-Dec-09 12:30N 28°04' W 014°49'1020.2
2017-Dec-09 12:00N 28°06' W 015°00'1020.6
2017-Dec-09 11:30N 28°07' W 015°12'1020.1
2017-Dec-09 11:00N 28°09' W 015°23'1 2.0
2017-Dec-09 10:30N 28°10' W 015°24'3 5.2
2017-Dec-09 10:00N 28°12' W 015°24'1020.5
2017-Dec-09 09:30N 28°16' W 015°36'1020.3
2017-Dec-09 09:00N 28°19' W 015°47'1020.1
2017-Dec-09 08:30N 28°23' W 015°57'1020.2
2017-Dec-09 08:00N 28°26' W 016°08'612.9
2017-Dec-09 07:30N 28°28' W 016°15'0 0.0
2017-Dec-09 07:00N 28°28' W 016°15'0 0.0
2017-Dec-09 06:30N 28°28' W 016°15'0 0.0
2017-Dec-09 06:00N 28°28' W 016°15'0 0.0
2017-Dec-09 05:30N 28°28' W 016°15'0 0.0
2017-Dec-09 05:00N 28°28' W 016°15'0 0.0
2017-Dec-09 04:30N 28°28' W 016°15'0 0.0
2017-Dec-09 04:00N 28°28' W 016°15'0 0.0
2017-Dec-09 03:30N 28°28' W 016°15'0 0.0
2017-Dec-09 03:00N 28°28' W 016°15'0 0.0
2017-Dec-09 02:30N 28°28' W 016°15'0 0.0
2017-Dec-09 02:00N 28°28' W 016°15'0 0.0
2017-Dec-09 01:30N 28°28' W 016°15'0 0.0
2017-Dec-09 01:00N 28°28' W 016°15'0 0.0
2017-Dec-09 00:30N 28°28' W 016°15'0 0.0
2017-Dec-09 00:00N 28°28' W 016°15'0 0.0
2017-Dec-08 23:30N 28°28' W 016°15'0 0.0
2017-Dec-08 23:00N 28°28' W 016°15'2 3.4
2017-Dec-08 22:30N 28°28' W 016°13'713.7
2017-Dec-08 22:01N 28°26' W 016°06'1121.2
2017-Dec-08 21:30N 28°22' W 015°54'1020.9
2017-Dec-08 21:00N 28°18' W 015°43'1020.6
2017-Dec-08 20:31N 28°15' W 015°32'918.8
2017-Dec-08 20:01N 28°10' W 015°23'1 1.1
2017-Dec-08 19:30N 28°10' W 015°24'0 0.0
2017-Dec-08 19:00N 28°10' W 015°24'5 9.7
2017-Dec-08 18:31N 28°08' W 015°19'1020.3
2017-Dec-08 18:01N 28°07' W 015°07'1020.6
2017-Dec-08 17:31N 28°06' W 014°56'1020.7
2017-Dec-08 17:01N 28°04' W 014°44'1121.0
2017-Dec-08 16:31N 28°02' W 014°32'1 0.2
2017-Dec-08 13:23N 28°02' W 014°32'719.2
2017-Dec-08 13:00N 28°03' W 014°40'1019.4
2017-Dec-08 12:30N 28°05' W 014°51'1019.7
2017-Dec-08 12:00N 28°06' W 015°02'1020.0
2017-Dec-08 11:30N 28°07' W 015°13'1019.2
2017-Dec-08 11:00N 28°09' W 015°24'1 1.3
2017-Dec-08 10:30N 28°10' W 015°24'1 3.0
2017-Dec-08 10:00N 28°11' W 015°23'1020.1
2017-Dec-08 09:30N 28°15' W 015°33'1020.5
2017-Dec-08 09:00N 28°18' W 015°44'1020.0
2017-Dec-08 08:30N 28°22' W 015°55'1020.0
2017-Dec-08 08:00N 28°26' W 016°06'816.7
2017-Dec-08 07:31N 28°28' W 016°14'0 0.6
2017-Dec-08 07:01N 28°28' W 016°15'0 0.0
2017-Dec-08 06:31N 28°28' W 016°15'0 0.0
2017-Dec-08 06:01N 28°28' W 016°15'0 0.0
2017-Dec-08 05:31N 28°28' W 016°15'0 0.0
2017-Dec-08 05:01N 28°28' W 016°15'0 0.0
2017-Dec-08 04:30N 28°28' W 016°15'0 0.0
2017-Dec-08 04:01N 28°28' W 016°15'0 0.0
2017-Dec-08 03:31N 28°28' W 016°15'0 0.0
2017-Dec-08 03:00N 28°28' W 016°15'0 0.0
2017-Dec-08 02:31N 28°28' W 016°15'0 0.0
2017-Dec-08 02:01N 28°28' W 016°15'0 0.0
2017-Dec-08 01:31N 28°28' W 016°15'0 0.0
2017-Dec-08 01:01N 28°28' W 016°15'0 0.0
2017-Dec-08 00:31N 28°28' W 016°15'0 0.0
2017-Dec-08 00:01N 28°28' W 016°15'0 0.0
2017-Dec-07 23:31N 28°28' W 016°15'0 0.3
2017-Dec-07 23:01N 28°28' W 016°15'714.4
2017-Dec-07 22:30N 28°26' W 016°07'1121.1
2017-Dec-07 21:58N 28°22' W 015°55'1020.9
2017-Dec-07 21:30N 28°19' W 015°44'1020.4
2017-Dec-07 21:00N 28°15' W 015°34'1020.4
2017-Dec-07 20:30N 28°11' W 015°23'2 3.1
2017-Dec-07 20:00N 28°10' W 015°24'0 0.0
2017-Dec-07 19:31N 28°10' W 015°24'0 0.0
2017-Dec-07 19:00N 28°10' W 015°24'2 4.6
2017-Dec-07 18:30N 28°12' W 015°24'1020.1
2017-Dec-07 18:00N 28°15' W 015°35'1020.1
2017-Dec-07 17:30N 28°19' W 015°46'1019.7
2017-Dec-07 17:00N 28°23' W 015°56'1019.7
2017-Dec-07 16:31N 28°26' W 016°06'815.4
2017-Dec-07 16:01N 28°28' W 016°15'0 0.3
2017-Dec-07 15:30N 28°28' W 016°15'2511.5
2017-Dec-07 13:20N 28°20' W 015°48'721.3
2017-Dec-07 13:01N 28°17' W 015°41'1020.9
2017-Dec-07 12:31N 28°14' W 015°29'612.9
2017-Dec-07 12:00N 28°09' W 015°24'0 0.6
2017-Dec-07 11:30N 28°10' W 015°24'0 0.0
2017-Dec-07 11:00N 28°10' W 015°24'0 0.3
2017-Dec-07 10:31N 28°09' W 015°24'612.2
2017-Dec-07 10:01N 28°14' W 015°29'1020.3
2017-Dec-07 09:31N 28°17' W 015°40'1020.1
2017-Dec-07 09:00N 28°21' W 015°51'1019.9
2017-Dec-07 08:30N 28°24' W 016°01'1119.8
2017-Dec-07 07:58N 28°28' W 016°12'2 1.5
2017-Dec-07 06:38N 28°28' W 016°15'0 0.0
2017-Dec-07 06:30N 28°28' W 016°15'0 0.0
2017-Dec-07 06:00N 28°28' W 016°15'0 0.0
2017-Dec-07 05:30N 28°28' W 016°15'0 0.0
2017-Dec-07 05:00N 28°28' W 016°15'0 0.0
2017-Dec-07 04:30N 28°28' W 016°15'0 0.0
2017-Dec-07 04:00N 28°28' W 016°15'0 0.0
2017-Dec-07 03:30N 28°28' W 016°15'0 0.0
2017-Dec-07 03:00N 28°28' W 016°15'0 0.0
2017-Dec-07 02:30N 28°28' W 016°15'0 0.0
2017-Dec-07 02:00N 28°28' W 016°15'0 0.0
2017-Dec-07 01:30N 28°28' W 016°15'0 0.0
2017-Dec-07 01:00N 28°28' W 016°15'0 0.0
2017-Dec-07 00:30N 28°28' W 016°15'0 0.0
2017-Dec-07 00:00N 28°28' W 016°15'0 0.0
2017-Dec-06 23:30N 28°28' W 016°15'0 0.0
2017-Dec-06 23:00N 28°28' W 016°15'2 3.1
2017-Dec-06 22:30N 28°29' W 016°13'612.4
2017-Dec-06 22:00N 28°26' W 016°06'1121.0
2017-Dec-06 21:30N 28°22' W 015°55'1021.0
2017-Dec-06 21:00N 28°19' W 015°44'  
Track history (hours):
 
Tides and Currents Weather Stations Pressure Air Temp Water Temp Dewpoint Dewpoint Depression Visibility Wind Speed Wind Dir Waves Ship Positions

Volcan De Tamasite

Last reported at 2017-Dec-16 13:00 UTC. Time now 2017-Dec-16 13:14 UTC.
Position N 28°03' W 014°41'.

Length 141 m; draft 5.5 m.

Type: Passenger vessel. MMSI: 224093000.

Date/timePositionNaut miles runAvg speedWind from/ knotsBaromVisibWave heightAir tempDewpointWater temp
2017-Dec-16 13:00N 28°03' W 014°41'1021.0
2017-Dec-16 12:30N 28°04' W 014°53'1120.9
2017-Dec-16 12:00N 28°06' W 015°05'1021.0
2017-Dec-16 11:30N 28°08' W 015°16'714.4
2017-Dec-16 11:00N 28°10' W 015°24'0 0.0
2017-Dec-16 10:30N 28°10' W 015°24'3 5.1
2017-Dec-16 10:00N 28°12' W 015°25'1121.1
2017-Dec-16 09:30N 28°16' W 015°36'1020.8
2017-Dec-16 09:00N 28°20' W 015°47'1020.6
2017-Dec-16 08:30N 28°23' W 015°58'1020.6
2017-Dec-16 08:00N 28°27' W 016°09'510.2
2017-Dec-16 07:30N 28°28' W 016°15'0 0.0
2017-Dec-16 07:00N 28°28' W 016°15'0 0.0
2017-Dec-16 06:30N 28°28' W 016°15'0 0.0
2017-Dec-16 06:00N 28°28' W 016°15'0 0.0
2017-Dec-16 05:30N 28°28' W 016°15'0 0.0
2017-Dec-16 05:00N 28°28' W 016°15'0 0.0
2017-Dec-16 04:30N 28°28' W 016°15'0 0.0
2017-Dec-16 04:00N 28°28' W 016°15'0 0.0
2017-Dec-16 03:30N 28°28' W 016°15'0 0.0
2017-Dec-16 03:00N 28°28' W 016°15'0 0.0
2017-Dec-16 02:30N 28°28' W 016°15'0 0.0
2017-Dec-16 02:00N 28°28' W 016°15'0 0.0
2017-Dec-16 01:30N 28°28' W 016°15'0 0.0
2017-Dec-16 01:00N 28°28' W 016°15'0 0.0
2017-Dec-16 00:30N 28°28' W 016°15'0 0.0
2017-Dec-16 00:00N 28°28' W 016°15'0 0.0
2017-Dec-15 23:30N 28°28' W 016°15'1 2.0
2017-Dec-15 23:00N 28°29' W 016°14'816.4
2017-Dec-15 22:31N 28°25' W 016°05'1320.0
2017-Dec-15 21:51N 28°20' W 015°52'720.0
2017-Dec-15 21:30N 28°19' W 015°44'1020.0
2017-Dec-15 21:00N 28°15' W 015°33'1019.9
2017-Dec-15 20:30N 28°11' W 015°23'2 3.4
2017-Dec-15 20:00N 28°10' W 015°24'0 0.0
2017-Dec-15 19:30N 28°10' W 015°24'0 0.1
2017-Dec-15 19:00N 28°10' W 015°24'713.4
2017-Dec-15 18:31N 28°08' W 015°17'1020.7
2017-Dec-15 18:00N 28°06' W 015°05'1020.4
2017-Dec-15 17:31N 28°05' W 014°54'1020.5
2017-Dec-15 17:01N 28°03' W 014°42'1020.6
2017-Dec-15 16:31N 28°02' W 014°31'8 4.7
2017-Dec-15 14:51N 28°03' W 014°22'0 0.0
2017-Dec-15 14:27N 28°03' W 014°22'1310.9
2017-Dec-15 13:17N 28°02' W 014°36'620.4
2017-Dec-15 13:00N 28°03' W 014°42'1020.4
2017-Dec-15 12:30N 28°05' W 014°54'1020.5
2017-Dec-15 12:00N 28°07' W 015°05'1020.6
2017-Dec-15 11:30N 28°09' W 015°17'713.0
2017-Dec-15 11:00N 28°10' W 015°24'0 0.0
2017-Dec-15 10:30N 28°10' W 015°24'2 4.1
2017-Dec-15 10:00N 28°12' W 015°24'1020.5
2017-Dec-15 09:30N 28°16' W 015°35'1020.2
2017-Dec-15 09:00N 28°18' W 015°45'1020.1
2017-Dec-15 08:30N 28°22' W 015°56'1020.4
2017-Dec-15 08:00N 28°26' W 016°07'714.8
2017-Dec-15 07:31N 28°28' W 016°15'0 0.0
2017-Dec-15 07:01N 28°28' W 016°15'0 0.0
2017-Dec-15 06:31N 28°28' W 016°15'0 0.0
2017-Dec-15 06:00N 28°28' W 016°15'0 0.0
2017-Dec-15 05:30N 28°28' W 016°15'0 0.0
2017-Dec-15 05:00N 28°28' W 016°15'0 0.0
2017-Dec-15 04:30N 28°28' W 016°15'0 0.0
2017-Dec-15 04:00N 28°28' W 016°15'0 0.0
2017-Dec-15 02:31N 28°28' W 016°15'0 0.0
2017-Dec-15 01:00N 28°28' W 016°15'0 0.2
2017-Dec-15 00:31N 28°28' W 016°15'29 4.8
2017-Dec-14 18:30N 28°19' W 015°44'1019.7
2017-Dec-14 18:00N 28°22' W 015°55'1019.8
2017-Dec-14 17:30N 28°26' W 016°05'917.3
2017-Dec-14 17:00N 28°29' W 016°14'0 0.8
2017-Dec-14 16:30N 28°28' W 016°15'0 0.0
2017-Dec-14 16:00N 28°28' W 016°15'0 0.0
2017-Dec-14 15:00N 28°28' W 016°15'3 5.5
2017-Dec-14 14:30N 28°28' W 016°12'1020.6
2017-Dec-14 14:00N 28°25' W 016°01'1020.5
2017-Dec-14 13:30N 28°21' W 015°49'1020.4
2017-Dec-14 13:00N 28°17' W 015°39'1020.0
2017-Dec-14 12:30N 28°13' W 015°28'611.1
2017-Dec-14 12:00N 28°09' W 015°24'0 0.5
2017-Dec-14 11:30N 28°10' W 015°24'0 0.0
2017-Dec-14 11:00N 28°10' W 015°24'0 0.0
2017-Dec-14 10:30N 28°10' W 015°24'3 6.2
2017-Dec-14 10:01N 28°13' W 015°25'1020.3
2017-Dec-14 09:30N 28°16' W 015°36'1019.8
2017-Dec-14 09:00N 28°19' W 015°46'1019.8
2017-Dec-14 08:30N 28°23' W 015°57'1019.7
2017-Dec-14 08:01N 28°27' W 016°07'713.5
2017-Dec-14 07:30N 28°28' W 016°15'0 0.0
2017-Dec-14 07:00N 28°28' W 016°15'0 0.0
2017-Dec-14 06:30N 28°28' W 016°15'0 0.0
2017-Dec-14 06:00N 28°28' W 016°15'0 0.0
2017-Dec-14 05:30N 28°28' W 016°15'0 0.0
2017-Dec-14 05:00N 28°28' W 016°15'0 0.0
2017-Dec-14 04:30N 28°28' W 016°15'0 0.0
2017-Dec-14 04:00N 28°28' W 016°15'0 0.0
2017-Dec-14 03:30N 28°28' W 016°15'0 0.0
2017-Dec-14 03:00N 28°28' W 016°15'0 0.0
2017-Dec-14 02:30N 28°28' W 016°15'0 0.0
2017-Dec-14 02:00N 28°28' W 016°15'0 0.0
2017-Dec-14 01:30N 28°28' W 016°15'0 0.0
2017-Dec-14 01:00N 28°28' W 016°15'0 0.0
2017-Dec-14 00:30N 28°28' W 016°15'0 0.0
2017-Dec-14 00:00N 28°28' W 016°15'1 2.5
2017-Dec-13 23:30N 28°29' W 016°13'816.3
2017-Dec-13 23:00N 28°26' W 016°05'1019.7
2017-Dec-13 22:29N 28°22' W 015°54'919.6
2017-Dec-13 22:00N 28°19' W 015°44'1019.3
2017-Dec-13 21:30N 28°15' W 015°34'1019.4
2017-Dec-13 21:00N 28°12' W 015°23'3 5.5
2017-Dec-13 20:30N 28°10' W 015°24'0 0.0
2017-Dec-13 20:00N 28°10' W 015°24'0 0.0
2017-Dec-13 19:30N 28°10' W 015°24'1 1.1
2017-Dec-13 19:00N 28°09' W 015°24'714.8
2017-Dec-13 18:30N 28°08' W 015°16'1019.9
2017-Dec-13 18:00N 28°07' W 015°04'1019.8
2017-Dec-13 17:30N 28°06' W 014°53'1019.8
2017-Dec-13 17:00N 28°04' W 014°42'1020.2
2017-Dec-13 16:30N 28°02' W 014°31'1 0.2
2017-Dec-13 10:56N 28°02' W 014°32'818.8
2017-Dec-13 10:30N 28°04' W 014°41'918.7
2017-Dec-13 10:00N 28°06' W 014°52'919.0
2017-Dec-13 09:30N 28°09' W 015°02'918.4
2017-Dec-13 09:00N 28°11' W 015°12'816.9
2017-Dec-13 08:30N 28°10' W 015°21'2 4.7
2017-Dec-13 08:00N 28°10' W 015°24'0 0.0
2017-Dec-13 07:30N 28°10' W 015°24'0 0.0
2017-Dec-13 07:00N 28°10' W 015°24'0 0.0
2017-Dec-13 06:30N 28°10' W 015°24'0 0.0
2017-Dec-13 06:00N 28°10' W 015°24'0 0.0
2017-Dec-13 05:30N 28°10' W 015°24'0 0.0
2017-Dec-13 05:00N 28°10' W 015°24'0 0.0
2017-Dec-13 04:30N 28°10' W 015°24'0 0.0
2017-Dec-13 04:00N 28°10' W 015°24'0 0.0
2017-Dec-13 03:30N 28°10' W 015°24'0 0.0
2017-Dec-13 03:00N 28°10' W 015°24'0 0.0
2017-Dec-13 02:30N 28°10' W 015°24'0 0.0
2017-Dec-13 02:00N 28°10' W 015°24'0 0.0
2017-Dec-13 01:30N 28°10' W 015°24'0 0.0
2017-Dec-13 01:00N 28°10' W 015°24'0 0.0
2017-Dec-13 00:30N 28°10' W 015°24'0 0.0
2017-Dec-13 00:00N 28°10' W 015°24'0 0.0
2017-Dec-12 23:30N 28°10' W 015°24'0 0.0
2017-Dec-12 23:00N 28°10' W 015°24'0 0.0
2017-Dec-12 22:30N 28°10' W 015°24'0 0.0
2017-Dec-12 22:00N 28°10' W 015°24'0 0.0
2017-Dec-12 21:30N 28°10' W 015°24'0 0.0
2017-Dec-12 21:00N 28°10' W 015°24'0 0.0
2017-Dec-12 20:30N 28°10' W 015°24'0 0.0
2017-Dec-12 20:00N 28°10' W 015°24'0 0.0
2017-Dec-12 19:30N 28°10' W 015°24'1 1.2
2017-Dec-12 19:01N 28°09' W 015°24'918.6
2017-Dec-12 18:30N 28°11' W 015°14'1019.6
2017-Dec-12 18:00N 28°10' W 015°02'918.7
2017-Dec-12 17:30N 28°07' W 014°52'918.6
2017-Dec-12 17:00N 28°04' W 014°42'1019.5
2017-Dec-12 16:30N 28°02' W 014°32'9 8.9
2017-Dec-12 15:31N 28°03' W 014°22'0 0.0
2017-Dec-12 15:30N 28°03' W 014°22'0 0.0
2017-Dec-12 14:43N 28°03' W 014°22'0 0.0
2017-Dec-12 14:28N 28°03' W 014°22'9 2.2
2017-Dec-12 10:30N 28°02' W 014°32'47 4.1
2017-Dec-11 23:06N 28°10' W 015°24'0 0.0
2017-Dec-11 23:00N 28°10' W 015°24'0 0.0
2017-Dec-11 22:30N 28°10' W 015°24'0 0.0
2017-Dec-11 22:00N 28°10' W 015°24'0 0.0
2017-Dec-11 21:30N 28°10' W 015°24'0 0.0
2017-Dec-11 21:00N 28°10' W 015°24'0 0.0
2017-Dec-11 20:30N 28°10' W 015°24'0 0.0
2017-Dec-11 20:00N 28°10' W 015°24'0 0.0
2017-Dec-11 19:30N 28°10' W 015°24'1 2.1
2017-Dec-11 19:00N 28°09' W 015°23'612.4
2017-Dec-11 18:30N 28°08' W 015°16'918.8
2017-Dec-11 18:00N 28°06' W 015°06'1020.0
2017-Dec-11 17:30N 28°05' W 014°54'1020.1
2017-Dec-11 17:00N 28°04' W 014°43'1020.3
2017-Dec-11 16:30N 28°02' W 014°32'1 0.2
2017-Dec-11 10:25N 28°02' W 014°31'921.1
2017-Dec-11 10:00N 28°03' W 014°40'1121.0
2017-Dec-11 09:30N 28°05' W 014°52'1021.0
2017-Dec-11 09:00N 28°06' W 015°04'1121.1
2017-Dec-11 08:30N 28°08' W 015°16'815.1
2017-Dec-11 08:00N 28°10' W 015°24'0 0.1
2017-Dec-11 07:30N 28°10' W 015°24'0 0.0
2017-Dec-11 07:00N 28°10' W 015°24'0 0.0
2017-Dec-11 06:30N 28°10' W 015°24'0 0.0
2017-Dec-11 06:00N 28°10' W 015°24'0 0.0
2017-Dec-11 05:30N 28°10' W 015°24'0 0.0
2017-Dec-11 05:00N 28°10' W 015°24'0 0.0
2017-Dec-11 04:30N 28°10' W 015°24'0 0.0
2017-Dec-11 04:00N 28°10' W 015°24'0 0.0
2017-Dec-11 03:30N 28°10' W 015°24'0 0.0
2017-Dec-11 03:00N 28°10' W 015°24'0 0.0
2017-Dec-11 02:30N 28°10' W 015°24'0 0.0
2017-Dec-11 02:00N 28°10' W 015°24'0 0.0
2017-Dec-11 01:30N 28°10' W 015°24'0 0.0
2017-Dec-11 01:00N 28°10' W 015°24'0 0.0
2017-Dec-11 00:30N 28°10' W 015°24'0 0.0
2017-Dec-11 00:00N 28°10' W 015°24'0 0.0
2017-Dec-10 23:30N 28°10' W 015°24'0 0.0
2017-Dec-10 23:00N 28°10' W 015°24'0 0.0
2017-Dec-10 22:30N 28°10' W 015°24'0 0.0
2017-Dec-10 22:00N 28°10' W 015°24'0 0.4
2017-Dec-10 21:30N 28°09' W 015°24'816.2
2017-Dec-10 21:00N 28°08' W 015°15'1020.0
2017-Dec-10 20:30N 28°06' W 015°04'1020.1
2017-Dec-10 20:00N 28°05' W 014°53'1019.9
2017-Dec-10 19:30N 28°03' W 014°41'1020.6
2017-Dec-10 19:00N 28°02' W 014°30'0 0.2
2017-Dec-10 16:26N 28°02' W 014°30'819.7
2017-Dec-10 16:00N 28°03' W 014°40'1020.4
2017-Dec-10 15:30N 28°05' W 014°51'1020.4
2017-Dec-10 15:00N 28°06' W 015°03'1020.4
2017-Dec-10 14:30N 28°07' W 015°14'918.0
2017-Dec-10 14:00N 28°09' W 015°24'0 0.6
2017-Dec-10 13:30N 28°10' W 015°24'0 0.0
2017-Dec-10 13:00N 28°10' W 015°24'0 0.0
2017-Dec-10 12:30N 28°10' W 015°24'0 0.0
2017-Dec-10 12:00N 28°10' W 015°24'0 0.0
2017-Dec-10 11:30N 28°10' W 015°24'0 0.0
2017-Dec-10 11:00N 28°10' W 015°24'2 3.2
2017-Dec-10 10:30N 28°11' W 015°23'1020.0
2017-Dec-10 10:00N 28°15' W 015°34'1020.4
2017-Dec-10 09:30N 28°18' W 015°45'1019.9
2017-Dec-10 09:00N 28°22' W 015°55'1020.3
2017-Dec-10 08:30N 28°26' W 016°06'816.2
2017-Dec-10 08:01N 28°28' W 016°15'0 0.4
2017-Dec-10 07:30N 28°28' W 016°15'0 0.0
2017-Dec-10 07:00N 28°28' W 016°15'0 0.0
2017-Dec-10 06:30N 28°28' W 016°15'0 0.0
2017-Dec-10 06:00N 28°28' W 016°15'0 0.0
2017-Dec-10 05:30N 28°28' W 016°15'0 0.0
2017-Dec-10 05:00N 28°28' W 016°15'0 0.0
2017-Dec-10 04:30N 28°28' W 016°15'0 0.0
2017-Dec-10 04:00N 28°28' W 016°15'0 0.0
2017-Dec-10 03:30N 28°28' W 016°15'0 0.0
2017-Dec-10 03:00N 28°28' W 016°15'0 0.0
2017-Dec-10 02:30N 28°28' W 016°15'0 0.0
2017-Dec-10 02:00N 28°28' W 016°15'0 0.0
2017-Dec-10 01:30N 28°28' W 016°15'0 0.0
2017-Dec-10 01:00N 28°28' W 016°15'0 0.0
2017-Dec-10 00:30N 28°28' W 016°15'0 0.0
2017-Dec-10 00:00N 28°28' W 016°15'0 0.0
2017-Dec-09 23:30N 28°28' W 016°15'0 0.0
2017-Dec-09 23:00N 28°28' W 016°15'1 2.4
2017-Dec-09 22:30N 28°29' W 016°13'1020.3
2017-Dec-09 22:00N 28°25' W 016°03'1120.9
2017-Dec-09 21:29N 28°21' W 015°51'1020.8
2017-Dec-09 21:00N 28°18' W 015°40'1020.5
2017-Dec-09 20:30N 28°14' W 015°30'713.2
2017-Dec-09 20:00N 28°09' W 015°24'0 0.4
2017-Dec-09 19:30N 28°10' W 015°24'0 0.0
2017-Dec-09 19:00N 28°10' W 015°24'510.9
2017-Dec-09 18:31N 28°08' W 015°18'1020.2
2017-Dec-09 18:01N 28°07' W 015°07'1020.3
2017-Dec-09 17:31N 28°05' W 014°55'1020.4
2017-Dec-09 17:00N 28°04' W 014°44'1120.9
2017-Dec-09 16:30N 28°02' W 014°32'914.3
2017-Dec-09 15:52N 28°03' W 014°22'0 0.1
2017-Dec-09 13:47N 28°03' W 014°22'816.9
2017-Dec-09 13:20N 28°02' W 014°31'619.9
2017-Dec-09 13:00N 28°03' W 014°38'1020.0
2017-Dec-09 12:30N 28°04' W 014°49'1020.2
2017-Dec-09 12:00N 28°06' W 015°00'1020.6
2017-Dec-09 11:30N 28°07' W 015°12'1020.1
2017-Dec-09 11:00N 28°09' W 015°23'1 2.0
2017-Dec-09 10:30N 28°10' W 015°24'3 5.2
2017-Dec-09 10:00N 28°12' W 015°24'1020.5
2017-Dec-09 09:30N 28°16' W 015°36'1020.3
2017-Dec-09 09:00N 28°19' W 015°47'1020.1
2017-Dec-09 08:30N 28°23' W 015°57'1020.2
2017-Dec-09 08:00N 28°26' W 016°08'612.9
2017-Dec-09 07:30N 28°28' W 016°15'0 0.0
2017-Dec-09 07:00N 28°28' W 016°15'0 0.0
2017-Dec-09 06:30N 28°28' W 016°15'0 0.0
2017-Dec-09 06:00N 28°28' W 016°15'0 0.0
2017-Dec-09 05:30N 28°28' W 016°15'0 0.0
2017-Dec-09 05:00N 28°28' W 016°15'0 0.0
2017-Dec-09 04:30N 28°28' W 016°15'0 0.0
2017-Dec-09 04:00N 28°28' W 016°15'0 0.0
2017-Dec-09 03:30N 28°28' W 016°15'0 0.0
2017-Dec-09 03:00N 28°28' W 016°15'0 0.0
2017-Dec-09 02:30N 28°28' W 016°15'0 0.0
2017-Dec-09 02:00N 28°28' W 016°15'0 0.0
2017-Dec-09 01:30N 28°28' W 016°15'0 0.0
2017-Dec-09 01:00N 28°28' W 016°15'0 0.0
2017-Dec-09 00:30N 28°28' W 016°15'0 0.0
2017-Dec-09 00:00N 28°28' W 016°15'0 0.0
2017-Dec-08 23:30N 28°28' W 016°15'0 0.0
2017-Dec-08 23:00N 28°28' W 016°15'2 3.4
2017-Dec-08 22:30N 28°28' W 016°13'713.7
2017-Dec-08 22:01N 28°26' W 016°06'1121.2
2017-Dec-08 21:30N 28°22' W 015°54'1020.9
2017-Dec-08 21:00N 28°18' W 015°43'1020.6
2017-Dec-08 20:31N 28°15' W 015°32'918.8
2017-Dec-08 20:01N 28°10' W 015°23'1 1.1
2017-Dec-08 19:30N 28°10' W 015°24'0 0.0
2017-Dec-08 19:00N 28°10' W 015°24'5 9.7
2017-Dec-08 18:31N 28°08' W 015°19'1020.3
2017-Dec-08 18:01N 28°07' W 015°07'1020.6
2017-Dec-08 17:31N 28°06' W 014°56'1020.7
2017-Dec-08 17:01N 28°04' W 014°44'1121.0
2017-Dec-08 16:31N 28°02' W 014°32'1 0.2
2017-Dec-08 13:23N 28°02' W 014°32'719.2
2017-Dec-08 13:00N 28°03' W 014°40'1019.4
2017-Dec-08 12:30N 28°05' W 014°51'1019.7
2017-Dec-08 12:00N 28°06' W 015°02'1020.0
2017-Dec-08 11:30N 28°07' W 015°13'1019.2
2017-Dec-08 11:00N 28°09' W 015°24'1 1.3
2017-Dec-08 10:30N 28°10' W 015°24'1 3.0
2017-Dec-08 10:00N 28°11' W 015°23'1020.1
2017-Dec-08 09:30N 28°15' W 015°33'1020.5
2017-Dec-08 09:00N 28°18' W 015°44'1020.0
2017-Dec-08 08:30N 28°22' W 015°55'1020.0
2017-Dec-08 08:00N 28°26' W 016°06'816.7
2017-Dec-08 07:31N 28°28' W 016°14'0 0.6
2017-Dec-08 07:01N 28°28' W 016°15'0 0.0
2017-Dec-08 06:31N 28°28' W 016°15'0 0.0
2017-Dec-08 06:01N 28°28' W 016°15'0 0.0
2017-Dec-08 05:31N 28°28' W 016°15'0 0.0
2017-Dec-08 05:01N 28°28' W 016°15'0 0.0
2017-Dec-08 04:30N 28°28' W 016°15'0 0.0
2017-Dec-08 04:01N 28°28' W 016°15'0 0.0
2017-Dec-08 03:31N 28°28' W 016°15'0 0.0
2017-Dec-08 03:00N 28°28' W 016°15'0 0.0
2017-Dec-08 02:31N 28°28' W 016°15'0 0.0
2017-Dec-08 02:01N 28°28' W 016°15'0 0.0
2017-Dec-08 01:31N 28°28' W 016°15'0 0.0
2017-Dec-08 01:01N 28°28' W 016°15'0 0.0
2017-Dec-08 00:31N 28°28' W 016°15'0 0.0
2017-Dec-08 00:01N 28°28' W 016°15'0 0.0
2017-Dec-07 23:31N 28°28' W 016°15'0 0.3
2017-Dec-07 23:01N 28°28' W 016°15'714.4
2017-Dec-07 22:30N 28°26' W 016°07'1121.1
2017-Dec-07 21:58N 28°22' W 015°55'1020.9
2017-Dec-07 21:30N 28°19' W 015°44'1020.4
2017-Dec-07 21:00N 28°15' W 015°34'1020.4
2017-Dec-07 20:30N 28°11' W 015°23'2 3.1
2017-Dec-07 20:00N 28°10' W 015°24'0 0.0
2017-Dec-07 19:31N 28°10' W 015°24'0 0.0
2017-Dec-07 19:00N 28°10' W 015°24'2 4.6
2017-Dec-07 18:30N 28°12' W 015°24'1020.1
2017-Dec-07 18:00N 28°15' W 015°35'1020.1
2017-Dec-07 17:30N 28°19' W 015°46'1019.7
2017-Dec-07 17:00N 28°23' W 015°56'1019.7
2017-Dec-07 16:31N 28°26' W 016°06'815.4
2017-Dec-07 16:01N 28°28' W 016°15'0 0.3
2017-Dec-07 15:30N 28°28' W 016°15'2511.5
2017-Dec-07 13:20N 28°20' W 015°48'721.3
2017-Dec-07 13:01N 28°17' W 015°41'1020.9
2017-Dec-07 12:31N 28°14' W 015°29'612.9
2017-Dec-07 12:00N 28°09' W 015°24'0 0.6
2017-Dec-07 11:30N 28°10' W 015°24'0 0.0
2017-Dec-07 11:00N 28°10' W 015°24'0 0.3
2017-Dec-07 10:31N 28°09' W 015°24'612.2
2017-Dec-07 10:01N 28°14' W 015°29'1020.3
2017-Dec-07 09:31N 28°17' W 015°40'1020.1
2017-Dec-07 09:00N 28°21' W 015°51'1019.9
2017-Dec-07 08:30N 28°24' W 016°01'1119.8
2017-Dec-07 07:58N 28°28' W 016°12'2 1.5
2017-Dec-07 06:38N 28°28' W 016°15'0 0.0
2017-Dec-07 06:30N 28°28' W 016°15'0 0.0
2017-Dec-07 06:00N 28°28' W 016°15'0 0.0
2017-Dec-07 05:30N 28°28' W 016°15'0 0.0
2017-Dec-07 05:00N 28°28' W 016°15'0 0.0
2017-Dec-07 04:30N 28°28' W 016°15'0 0.0
2017-Dec-07 04:00N 28°28' W 016°15'0 0.0
2017-Dec-07 03:30N 28°28' W 016°15'0 0.0
2017-Dec-07 03:00N 28°28' W 016°15'0 0.0
2017-Dec-07 02:30N 28°28' W 016°15'0 0.0
2017-Dec-07 02:00N 28°28' W 016°15'0 0.0
2017-Dec-07 01:30N 28°28' W 016°15'0 0.0
2017-Dec-07 01:00N 28°28' W 016°15'0 0.0
2017-Dec-07 00:30N 28°28' W 016°15'0 0.0
2017-Dec-07 00:00N 28°28' W 016°15'0 0.0
2017-Dec-06 23:30N 28°28' W 016°15'0 0.0
2017-Dec-06 23:00N 28°28' W 016°15'2 3.1
2017-Dec-06 22:30N 28°29' W 016°13'612.4
2017-Dec-06 22:00N 28°26' W 016°06'1121.0
2017-Dec-06 21:30N 28°22' W 015°55'1021.0
2017-Dec-06 21:00N 28°19' W 015°44'  

Dump ship's entire track history